KAMA/AMA METAR and TAF weather

Enter ICAO airport designator
Station Type Date Time Source
KAMA METAR 2018/10/21 05:53 UTC NOAA

KAMA 210553Z AUTO 20009KT 10SM CLR 08/03 A3041 RMK AO2 SLP274 T00780033 10161 20061 402060061 50001


Station Type Date Time Source
KAMA Decoded METAR 2018/10/21 05:53 UTC NOAA

AMARILLO INTERNATIONAL AIRPORT, TX, United States (KAMA) 35-13N 101-43W 1093M
Oct 21, 2018 - 01:53 AM EDT / 2018.10.21 0553 UTC
Wind: from the SSW (200 degrees) at 10 MPH (9 KT):0
Visibility: 10 mile(s):0
Sky conditions: clear
Temperature: 46.0 F (7.8 C)
Dew Point: 37.9 F (3.3 C)
Relative Humidity: 73%
Pressure (altimeter): 30.41 in. Hg (1029 hPa)
Pressure tendency: 0.00 inches (0.1 hPa) higher than three hours ago
ob: KAMA 210553Z AUTO 20009KT 10SM CLR 08/03 A3041 RMK AO2 SLP274 T00780033 10161 20061 402060061 50001
cycle: 6

Station Type Date Time Source
KAMA TAF 2018/10/21 06:33 UTC NOAA

TAF KAMA 210530Z 2106/2206 19007KT P6SM SKC
FM211500 21014G24KT P6SM FEW250
FM220000 19012KT P6SM FEW250


Example: see airport list